Wetterdaten: aktuell Sonntag, 20.01.2019 17:10
Datum Zeit Temp. A. Wasser Luftdruck Regen Wind Richtung Richtung Solar Taupunkt Windben
20.01.2019 17:10 0.1 C 4.4 C 1016.2 hPa 0.0 mm 2.0 kts (1 Bft) S 187 0 W/m -2.4 C 2.6 kts (1 Bft)
20.01.2019 17:00 0.1 C 4.4 C 1016.1 hPa 0.0 mm 1.5 kts (1 Bft) S-SO 167 7 W/m -2.6 C 2.6 kts (1 Bft)
20.01.2019 16:50 0.1 C 4.4 C 1015.9 hPa 0.0 mm 1.3 kts (1 Bft) S-SO 159 14 W/m -2.8 C 2.6 kts (1 Bft)
20.01.2019 16:40 0.1 C 4.4 C 1016.0 hPa 0.0 mm 0.9 kts (1 Bft) S-SO 159 25 W/m -2.8 C 1.7 kts (1 Bft)
20.01.2019 16:30 0.1 C 4.4 C 1016.0 hPa 0.0 mm 1.7 kts (1 Bft) S-SO 159 32 W/m -2.9 C 2.6 kts (1 Bft)
20.01.2019 16:20 0.1 C 4.4 C 1016.0 hPa 0.0 mm 1.3 kts (1 Bft) SO 134 35 W/m -2.9 C 1.7 kts (1 Bft)
20.01.2019 16:10 0.0 C 4.4 C 1015.9 hPa 0.0 mm 0.8 kts (1 Bft) SO 134 33 W/m -2.9 C 1.7 kts (1 Bft)
20.01.2019 16:00 0.0 C 4.4 C 1015.9 hPa 0.0 mm 0.4 kts (0 Bft) SO 134 33 W/m -2.9 C 1.7 kts (1 Bft)
20.01.2019 15:50 -0.1 C 4.4 C 1015.9 hPa 0.0 mm 0.7 kts (1 Bft) SO 134 39 W/m -2.6 C 1.7 kts (1 Bft)
20.01.2019 15:40 -0.1 C 4.4 C 1015.9 hPa 0.0 mm 0.3 kts (0 Bft) SO 134 51 W/m -2.8 C 1.7 kts (1 Bft)
20.01.2019 15:30 -0.2 C 3.9 C 1015.9 hPa 0.0 mm 0.6 kts (1 Bft) SO 134 53 W/m -2.7 C 1.7 kts (1 Bft)
20.01.2019 15:20 -0.2 C 3.9 C 1015.8 hPa 0.0 mm 1.3 kts (1 Bft) SO 134 62 W/m -2.6 C 2.6 kts (1 Bft)
20.01.2019 15:10 -0.3 C 3.9 C 1015.7 hPa 0.0 mm 1.6 kts (1 Bft) SO 134 79 W/m -2.7 C 3.5 kts (2 Bft)
20.01.2019 15:00 -0.3 C 3.9 C 1015.7 hPa 0.0 mm 2.1 kts (1 Bft) SO 133 90 W/m -2.5 C 3.5 kts (2 Bft)
20.01.2019 14:50 -0.4 C 3.9 C 1015.6 hPa 0.0 mm 1.5 kts (1 Bft) SO 130 100 W/m -2.6 C 2.6 kts (1 Bft)
20.01.2019 14:40 -0.4 C 3.9 C 1015.6 hPa 0.0 mm 2.2 kts (1 Bft) SO 124 116 W/m -2.4 C 3.5 kts (2 Bft)
20.01.2019 14:30 -0.4 C 3.9 C 1015.6 hPa 0.0 mm 2.3 kts (1 Bft) O-SO 123 130 W/m -2.4 C 3.5 kts (2 Bft)
20.01.2019 14:20 -0.6 C 3.9 C 1015.6 hPa 0.0 mm 1.7 kts (1 Bft) SO 130 139 W/m -2.6 C 3.5 kts (2 Bft)
20.01.2019 14:10 -0.6 C 3.9 C 1015.6 hPa 0.0 mm 2.2 kts (1 Bft) S-SO 148 121 W/m -2.5 C 3.5 kts (2 Bft)
20.01.2019 14:00 -0.7 C 3.9 C 1015.6 hPa 0.0 mm 2.5 kts (1 Bft) O-SO 117 116 W/m -2.7 C 4.3 kts (2 Bft)
20.01.2019 13:50 -0.7 C 3.9 C 1015.6 hPa 0.0 mm 2.6 kts (1 Bft) O-SO 106 105 W/m -2.7 C 4.3 kts (2 Bft)
20.01.2019 13:40 -0.8 C 3.9 C 1015.7 hPa 0.0 mm 1.5 kts (1 Bft) O-SO 117 128 W/m -2.8 C 2.6 kts (1 Bft)
20.01.2019 13:30 -1.0 C 3.9 C 1015.7 hPa 0.0 mm 1.1 kts (1 Bft) O 94 162 W/m -3.0 C 2.6 kts (1 Bft)
20.01.2019 13:20 -1.1 C 3.3 C 1015.9 hPa 0.0 mm 0.6 kts (1 Bft) O 94 165 W/m -3.1 C 1.7 kts (1 Bft)
20.01.2019 13:10 -1.1 C 3.3 C 1016.0 hPa 0.0 mm 0.6 kts (1 Bft) O 94 167 W/m -3.1 C 1.7 kts (1 Bft)
20.01.2019 13:00 -1.2 C 3.3 C 1016.1 hPa 0.0 mm 1.0 kts (1 Bft) O 94 171 W/m -3.2 C 2.6 kts (1 Bft)
20.01.2019 12:50 -1.2 C 3.3 C 1016.2 hPa 0.0 mm 0.9 kts (1 Bft) S 177 174 W/m -3.2 C 2.6 kts (1 Bft)
20.01.2019 12:40 -1.3 C 3.3 C 1016.2 hPa 0.0 mm 0.3 kts (0 Bft) SW 236 165 W/m -3.3 C 1.7 kts (1 Bft)
20.01.2019 12:30 -1.3 C 3.3 C 1016.1 hPa 0.0 mm 0.0 kts (0 Bft) W-SW 241 167 W/m -3.3 C 0.0 kts (0 Bft)
20.01.2019 12:20 -1.3 C 3.3 C 1016.1 hPa 0.0 mm 0.0 kts (0 Bft) W-SW 241 197 W/m -3.3 C 0.0 kts (0 Bft)
20.01.2019 12:10 -1.6 C 3.3 C 1016.2 hPa 0.0 mm 0.5 kts (0 Bft) W-SW 241 183 W/m -3.6 C 1.7 kts (1 Bft)
20.01.2019 12:00 -1.7 C 3.3 C 1016.2 hPa 0.0 mm 0.5 kts (0 Bft) W-NW 292 183 W/m -3.6 C 1.7 kts (1 Bft)
20.01.2019 11:50 -1.8 C 3.3 C 1016.2 hPa 0.0 mm 1.3 kts (1 Bft) W-NW 292 127 W/m -3.5 C 3.5 kts (2 Bft)
20.01.2019 11:40 -1.8 C 3.3 C 1016.2 hPa 0.0 mm 0.7 kts (1 Bft) N-NW 338 162 W/m -3.5 C 2.6 kts (1 Bft)
20.01.2019 11:30 -1.9 C 3.3 C 1016.3 hPa 0.0 mm 1.5 kts (1 Bft) N 355 141 W/m -3.6 C 2.6 kts (1 Bft)
20.01.2019 11:20 -1.9 C 3.3 C 1016.4 hPa 0.0 mm 1.9 kts (1 Bft) W-NW 291 111 W/m -3.6 C 3.5 kts (2 Bft)
20.01.2019 11:10 -1.9 C 3.3 C 1016.4 hPa 0.0 mm 1.5 kts (1 Bft) W-NW 287 148 W/m -3.6 C 3.5 kts (2 Bft)
20.01.2019 11:00 -2.0 C 3.3 C 1016.2 hPa 0.0 mm 1.0 kts (1 Bft) S 190 120 W/m -3.7 C 1.7 kts (1 Bft)
20.01.2019 10:50 -2.1 C 3.3 C 1016.1 hPa 0.0 mm 0.4 kts (0 Bft) S 190 128 W/m -3.7 C 1.7 kts (1 Bft)
20.01.2019 10:40 -2.2 C 3.3 C 1016.2 hPa 0.0 mm 1.0 kts (1 Bft) S 190 107 W/m -3.8 C 2.6 kts (1 Bft)
20.01.2019 10:30 -2.2 C 3.3 C 1016.1 hPa 0.0 mm 1.5 kts (1 Bft) S 188 90 W/m -3.8 C 2.6 kts (1 Bft)
20.01.2019 10:20 -2.3 C 3.3 C 1015.9 hPa 0.0 mm 1.2 kts (1 Bft) S-SW 212 98 W/m -3.9 C 2.6 kts (1 Bft)
20.01.2019 10:10 -2.4 C 3.3 C 1015.9 hPa 0.0 mm 1.8 kts (1 Bft) SW 226 118 W/m -3.8 C 3.5 kts (2 Bft)
20.01.2019 10:00 -2.6 C 3.3 C 1015.7 hPa 0.0 mm 3.0 kts (1 Bft) SW 229 90 W/m -4.0 C 4.3 kts (2 Bft)
20.01.2019 09:50 -2.8 C 3.3 C 1015.7 hPa 0.0 mm 3.0 kts (1 Bft) SW 226 109 W/m -4.2 C 4.3 kts (2 Bft)
20.01.2019 09:40 -2.9 C 3.3 C 1015.5 hPa 0.0 mm 3.1 kts (1 Bft) SW 229 74 W/m -4.3 C 4.3 kts (2 Bft)
20.01.2019 09:30 -2.9 C 3.3 C 1015.5 hPa 0.0 mm 2.9 kts (1 Bft) W-SW 238 58 W/m -4.3 C 4.3 kts (2 Bft)
20.01.2019 09:20 -2.9 C 3.3 C 1015.4 hPa 0.0 mm 3.6 kts (2 Bft) S-SW 211 39 W/m -4.3 C 5.2 kts (2 Bft)
20.01.2019 09:10 -3.1 C 3.3 C 1015.3 hPa 0.0 mm 3.9 kts (2 Bft) S-SW 200 35 W/m -4.5 C 5.2 kts (2 Bft)
20.01.2019 09:00 -3.1 C 3.3 C 1015.2 hPa 0.0 mm 3.7 kts (2 Bft) S-SW 208 32 W/m -4.4 C 5.2 kts (2 Bft)
20.01.2019 08:50 -3.1 C 3.3 C 1015.2 hPa 0.0 mm 3.1 kts (1 Bft) S-SW 200 21 W/m -4.4 C 4.3 kts (2 Bft)
20.01.2019 08:40 -3.2 C 3.9 C 1015.2 hPa 0.0 mm 3.0 kts (1 Bft) S-SW 210 16 W/m -4.5 C 4.3 kts (2 Bft)
20.01.2019 08:30 -3.2 C 3.9 C 1015.1 hPa 0.0 mm 3.5 kts (2 Bft) S-SW 207 14 W/m -4.5 C 5.2 kts (2 Bft)
20.01.2019 08:20 -3.3 C 3.9 C 1015.0 hPa 0.0 mm 3.6 kts (2 Bft) S-SW 213 7 W/m -4.6 C 4.3 kts (2 Bft)
20.01.2019 08:10 -3.5 C 3.9 C 1014.9 hPa 0.0 mm 3.8 kts (2 Bft) SW 223 0 W/m -4.8 C 5.2 kts (2 Bft)
20.01.2019 08:00 -3.6 C 3.9 C 1014.8 hPa 0.0 mm 4.1 kts (2 Bft) SW 225 0 W/m -4.8 C 5.2 kts (2 Bft)
20.01.2019 07:50 -3.6 C 3.9 C 1014.8 hPa 0.0 mm 3.7 kts (2 Bft) SW 232 0 W/m -4.8 C 5.2 kts (2 Bft)
20.01.2019 07:40 -3.6 C 3.9 C 1014.7 hPa 0.0 mm 3.2 kts (2 Bft) SW 224 0 W/m -4.8 C 4.3 kts (2 Bft)
20.01.2019 07:30 -3.6 C 3.9 C 1014.7 hPa 0.0 mm 3.2 kts (2 Bft) SW 228 0 W/m -4.8 C 5.2 kts (2 Bft)
20.01.2019 07:20 -3.6 C 3.9 C 1014.6 hPa 0.0 mm 3.5 kts (2 Bft) SW 218 0 W/m -4.8 C 5.2 kts (2 Bft)
20.01.2019 07:10 -3.5 C 3.9 C 1014.5 hPa 0.0 mm 3.7 kts (2 Bft) SW 218 0 W/m -4.8 C 5.2 kts (2 Bft)
20.01.2019 07:00 -3.7 C 3.9 C 1014.5 hPa 0.0 mm 3.8 kts (2 Bft) S-SW 213 0 W/m -4.9 C 5.2 kts (2 Bft)
20.01.2019 06:50 -3.6 C 3.9 C 1014.5 hPa 0.0 mm 4.3 kts (2 Bft) S-SW 200 0 W/m -5.0 C 6.1 kts (2 Bft)
20.01.2019 06:40 -3.6 C 3.9 C 1014.5 hPa 0.0 mm 4.9 kts (2 Bft) S-SW 202 0 W/m -5.0 C 6.1 kts (2 Bft)
20.01.2019 06:30 -3.5 C 3.9 C 1014.6 hPa 0.0 mm 4.1 kts (2 Bft) S-SW 207 0 W/m -4.9 C 5.2 kts (2 Bft)
20.01.2019 06:20 -3.4 C 3.9 C 1014.6 hPa 0.0 mm 3.6 kts (2 Bft) S-SW 202 0 W/m -4.8 C 5.2 kts (2 Bft)
20.01.2019 06:10 -3.3 C 3.9 C 1014.5 hPa 0.0 mm 3.0 kts (1 Bft) S-SW 197 0 W/m -4.8 C 4.3 kts (2 Bft)
20.01.2019 06:00 -3.2 C 3.9 C 1014.4 hPa 0.0 mm 3.7 kts (2 Bft) S-SW 194 0 W/m -4.7 C 5.2 kts (2 Bft)
20.01.2019 05:50 -3.0 C 3.9 C 1014.4 hPa 0.0 mm 3.3 kts (2 Bft) S-SW 194 0 W/m -4.6 C 5.2 kts (2 Bft)
20.01.2019 05:40 -2.9 C 3.9 C 1014.5 hPa 0.0 mm 3.0 kts (1 Bft) S 174 0 W/m -4.3 C 5.2 kts (2 Bft)
20.01.2019 05:30 -3.1 C 3.9 C 1014.5 hPa 0.0 mm 4.3 kts (2 Bft) S 190 0 W/m -4.5 C 5.2 kts (2 Bft)
20.01.2019 05:20 -3.0 C 3.9 C 1014.5 hPa 0.0 mm 4.0 kts (2 Bft) S 184 0 W/m -4.6 C 6.1 kts (2 Bft)
20.01.2019 05:10 -2.9 C 3.9 C 1014.5 hPa 0.0 mm 3.2 kts (2 Bft) S 175 0 W/m -4.5 C 5.2 kts (2 Bft)
_ Min-Zeit 07:00 08:50 01:00 - 12:20 - - - 06:40 12:20
Minimum _ -3.7 C 3.3 C 1014.4 hPa - 0.0 kts (0 Bft) - - - -5.0 C 0.0 kts (0 Bft)
_ Max-Zeit 16:20 18:00 11:10 18:00 20:10 - - 12:20 17:10 19:40
Maximum _ 0.1 C 4.4 C 1016.4 hPa 0.0 mm 8.8 kts
O-NO (3 Bft)
- - 197 W/m -2.4 C 11.3 kts
O-NO (4 Bft)
Durchschnitt _ -2.0 C 4.0 C 1015.1 hPa #0.0 mm 3.2 kts (2 Bft) S-SW - 96 W/m -4.0 C 4.8 kts (2 Bft)